Time;durP1;ratioP1;P1;durP2;ratioP2;P2;SDS_P1;SDS_P2;PMS_P1;PMS_P2;Temp;Humidity;BMP_temperature;BMP_pressure;BME280_temperature;BME280_humidity;BME280_pressure;Samples;Min_cycle;Max_cycle;Signal;HPM_P1;HPM_P2
2023/10/25 00:00:12;;;;;;;2.65;0.68;;;;;;;;;;5050153;28;20060;-74
2023/10/25 00:02:58;;;;;;;1.08;0.68;;;;;;;;;;5058949;28;20044;-73
2023/10/25 00:05:25;;;;;;;2.22;0.70;;;;;;;;;;5063415;28;20064;-74
2023/10/25 00:07:51;;;;;;;4.32;0.57;;;;;;;;;;5057138;28;20052;-73
2023/10/25 00:10:19;;;;;;;1.70;0.90;;;;;;;;;;5058003;28;20124;-73
2023/10/25 00:12:45;;;;;;;4.25;0.63;;;;;;;;;;5061341;28;20076;-73
2023/10/25 00:15:13;;;;;;;1.50;0.50;;;;;;;;;;5060100;28;20131;-74
2023/10/25 00:17:40;;;;;;;3.95;0.90;;;;;;;;;;5058485;28;20135;-72
2023/10/25 00:20:07;;;;;;;1.02;0.60;;;;;;;;;;5065787;28;20056;-74
2023/10/25 00:22:32;;;;;;;3.40;0.80;;;;;;;;;;5062078;28;20198;-73
2023/10/25 00:24:59;;;;;;;1.17;0.65;;;;;;;;;;5061994;28;20051;-73
2023/10/25 00:27:24;;;;;;;1.80;0.65;;;;;;;;;;5059680;28;20052;-74
2023/10/25 00:29:51;;;;;;;1.50;0.88;;;;;;;;;;5063431;28;20072;-71
2023/10/25 00:32:18;;;;;;;3.80;0.80;;;;;;;;;;5053449;28;20048;-72
2023/10/25 00:34:44;;;;;;;1.30;0.57;;;;;;;;;;5065645;28;20130;-73
2023/10/25 00:37:10;;;;;;;1.35;0.50;;;;;;;;;;5061310;28;20473;-73
2023/10/25 00:39:39;;;;;;;4.00;0.70;;;;;;;;;;5062442;28;20053;-74
2023/10/25 00:42:05;;;;;;;2.25;0.60;;;;;;;;;;5060966;28;20064;-73
2023/10/25 00:44:33;;;;;;;0.90;0.50;;;;;;;;;;5047007;28;20167;-73
2023/10/25 00:47:00;;;;;;;3.67;0.95;;;;;;;;;;5055888;28;20577;-74
2023/10/25 00:49:27;;;;;;;1.42;0.90;;;;;;;;;;5057869;28;20415;-74
2023/10/25 00:51:55;;;;;;;2.80;0.70;;;;;;;;;;5059066;28;20409;-73
2023/10/25 00:54:22;;;;;;;3.90;0.80;;;;;;;;;;5056411;28;20039;-72
2023/10/25 00:56:49;;;;;;;2.25;0.80;;;;;;;;;;5066173;28;20453;-72
2023/10/25 00:59:18;;;;;;;1.17;0.50;;;;;;;;;;5056841;28;20068;-73
2023/10/25 01:01:45;;;;;;;2.75;0.77;;;;;;;;;;5067117;28;20036;-74
2023/10/25 01:04:12;;;;;;;2.83;0.95;;;;;;;;;;5064650;28;20072;-74
2023/10/25 01:06:37;;;;;;;4.53;0.82;;;;;;;;;;5063920;28;20076;-72
2023/10/25 01:09:04;;;;;;;4.88;1.10;;;;;;;;;;5063688;28;20415;-74
2023/10/25 01:11:29;;;;;;;2.58;0.60;;;;;;;;;;5066078;28;20059;-72
2023/10/25 01:13:56;;;;;;;3.33;0.90;;;;;;;;;;5063120;28;20051;-72
2023/10/25 01:16:21;;;;;;;1.75;0.73;;;;;;;;;;5061056;28;20071;-71
2023/10/25 01:18:49;;;;;;;3.72;0.98;;;;;;;;;;5068420;28;20059;-72
2023/10/25 01:21:16;;;;;;;3.08;0.60;;;;;;;;;;5065368;28;20124;-73
2023/10/25 01:23:44;;;;;;;1.10;0.57;;;;;;;;;;5073948;28;20051;-73
2023/10/25 01:26:10;;;;;;;2.25;0.60;;;;;;;;;;5066968;28;20064;-74
2023/10/25 01:28:38;;;;;;;1.02;0.63;;;;;;;;;;5064987;28;20056;-72
2023/10/25 01:31:05;;;;;;;1.85;0.70;;;;;;;;;;5056070;28;20051;-72
2023/10/25 01:33:31;;;;;;;1.17;0.63;;;;;;;;;;5062415;28;20052;-72
2023/10/25 01:35:57;;;;;;;4.13;0.70;;;;;;;;;;5064319;28;20380;-73
2023/10/25 01:38:23;;;;;;;1.15;0.80;;;;;;;;;;5059904;28;20048;-73
2023/10/25 01:40:49;;;;;;;1.83;0.77;;;;;;;;;;5057332;28;20067;-73
2023/10/25 01:43:15;;;;;;;2.58;0.80;;;;;;;;;;5061216;28;20557;-71
2023/10/25 01:45:41;;;;;;;2.13;1.00;;;;;;;;;;5061483;28;20053;-74
2023/10/25 01:48:08;;;;;;;1.50;0.60;;;;;;;;;;5041602;28;20059;-73
2023/10/25 01:50:34;;;;;;;3.15;0.70;;;;;;;;;;5060739;28;20123;-74
2023/10/25 01:53:00;;;;;;;2.65;0.77;;;;;;;;;;5063734;28;20189;-73
2023/10/25 01:55:26;;;;;;;2.08;0.70;;;;;;;;;;5061764;28;20048;-73
2023/10/25 01:57:52;;;;;;;1.90;0.80;;;;;;;;;;5064383;28;20055;-74
2023/10/25 02:00:18;;;;;;;1.33;0.75;;;;;;;;;;5067090;28;20094;-72
2023/10/25 02:02:46;;;;;;;5.22;1.02;;;;;;;;;;5068699;28;20051;-72
2023/10/25 02:05:12;;;;;;;2.78;0.80;;;;;;;;;;5070240;28;20476;-70
2023/10/25 02:07:39;;;;;;;2.60;0.93;;;;;;;;;;5061353;28;20056;-72
2023/10/25 02:10:07;;;;;;;2.67;1.00;;;;;;;;;;5067901;28;20049;-72
2023/10/25 02:12:33;;;;;;;1.33;0.60;;;;;;;;;;5056989;28;20043;-72
2023/10/25 02:15:00;;;;;;;1.67;0.80;;;;;;;;;;5064409;28;20048;-73
2023/10/25 02:17:26;;;;;;;1.98;0.75;;;;;;;;;;5070696;28;20730;-73
2023/10/25 02:19:52;;;;;;;2.53;0.80;;;;;;;;;;5056523;28;20057;-72
2023/10/25 02:22:18;;;;;;;3.25;1.15;;;;;;;;;;5069105;28;20052;-73
2023/10/25 02:24:44;;;;;;;3.00;0.75;;;;;;;;;;5071740;28;20095;-73
2023/10/25 02:27:10;;;;;;;2.42;0.93;;;;;;;;;;5063468;28;20056;-73
2023/10/25 02:29:37;;;;;;;5.28;0.90;;;;;;;;;;5063834;28;20149;-75
2023/10/25 02:32:07;;;;;;;7.25;0.90;;;;;;;;;;5068657;28;20048;-73
2023/10/25 02:34:35;;;;;;;3.72;1.13;;;;;;;;;;5064046;28;20070;-73
2023/10/25 02:37:02;;;;;;;1.27;0.68;;;;;;;;;;5060114;28;20060;-73
2023/10/25 02:39:28;;;;;;;0.80;0.65;;;;;;;;;;5070011;28;20041;-72
2023/10/25 02:41:55;;;;;;;2.75;0.82;;;;;;;;;;5054802;28;20055;-73
2023/10/25 02:44:21;;;;;;;3.33;0.70;;;;;;;;;;5064557;28;20388;-71
2023/10/25 02:46:48;;;;;;;2.53;0.77;;;;;;;;;;5048682;28;20484;-72
2023/10/25 02:49:14;;;;;;;2.50;0.55;;;;;;;;;;5065818;28;20032;-73
2023/10/25 02:51:40;;;;;;;6.78;1.40;;;;;;;;;;5055673;28;20443;-72
2023/10/25 02:54:09;;;;;;;4.07;1.35;;;;;;;;;;5052310;28;20056;-72
2023/10/25 02:56:35;;;;;;;1.98;0.60;;;;;;;;;;5065023;28;20048;-73
2023/10/25 02:59:01;;;;;;;1.90;0.90;;;;;;;;;;5059154;28;20290;-74
2023/10/25 03:01:27;;;;;;;2.80;0.80;;;;;;;;;;5058356;28;20194;-72
2023/10/25 03:03:53;;;;;;;2.33;0.68;;;;;;;;;;5057699;28;20109;-71
2023/10/25 03:06:19;;;;;;;1.08;0.70;;;;;;;;;;5066531;28;20063;-73
2023/10/25 03:08:45;;;;;;;2.08;0.80;;;;;;;;;;5061489;28;20775;-71
2023/10/25 03:11:11;;;;;;;1.55;0.63;;;;;;;;;;5059519;28;20163;-72
2023/10/25 03:13:37;;;;;;;1.08;0.55;;;;;;;;;;5068239;28;20508;-71
2023/10/25 03:16:04;;;;;;;4.93;0.68;;;;;;;;;;5068717;28;20049;-73
2023/10/25 03:18:32;;;;;;;3.60;0.60;;;;;;;;;;5066298;28;20093;-72
2023/10/25 03:21:02;;;;;;;1.55;0.63;;;;;;;;;;5063600;28;20078;-73
2023/10/25 03:23:30;;;;;;;6.70;0.60;;;;;;;;;;5066384;28;20474;-73
2023/10/25 03:26:06;;;;;;;1.77;0.55;;;;;;;;;;5061750;28;20401;-71
2023/10/25 03:28:32;;;;;;;2.42;0.82;;;;;;;;;;5073110;28;20049;-73
2023/10/25 03:31:06;;;;;;;1.35;0.60;;;;;;;;;;5062840;28;20056;-71
2023/10/25 03:33:33;;;;;;;2.58;0.65;;;;;;;;;;5063771;28;20056;-73
2023/10/25 03:36:01;;;;;;;2.63;0.82;;;;;;;;;;5059151;28;20036;-73
2023/10/25 03:38:33;;;;;;;2.35;0.63;;;;;;;;;;5062697;28;20056;-73
2023/10/25 03:41:07;;;;;;;2.85;0.70;;;;;;;;;;5063324;28;20053;-75
2023/10/25 03:43:35;;;;;;;3.17;0.70;;;;;;;;;;5060536;28;20502;-74
2023/10/25 03:46:08;;;;;;;1.33;0.73;;;;;;;;;;5066932;28;20044;-73
2023/10/25 03:48:37;;;;;;;1.90;0.70;;;;;;;;;;5053228;28;20040;-74
2023/10/25 03:51:06;;;;;;;1.73;0.50;;;;;;;;;;5069248;28;20123;-74
2023/10/25 03:53:36;;;;;;;1.10;0.68;;;;;;;;;;5063345;28;20052;-72
2023/10/25 03:56:03;;;;;;;2.95;0.80;;;;;;;;;;5052709;28;20056;-72
2023/10/25 03:58:30;;;;;;;2.40;0.80;;;;;;;;;;5061039;28;20709;-75
2023/10/25 04:01:07;;;;;;;1.13;0.60;;;;;;;;;;5060803;28;20477;-74
2023/10/25 04:03:33;;;;;;;1.02;0.50;;;;;;;;;;5068023;28;20049;-74
2023/10/25 04:06:02;;;;;;;2.42;0.50;;;;;;;;;;5059410;28;21679;-73
2023/10/25 04:08:28;;;;;;;0.55;0.50;;;;;;;;;;5043976;28;20232;-72
2023/10/25 04:10:56;;;;;;;2.15;0.70;;;;;;;;;;5065791;28;20048;-71
2023/10/25 04:13:23;;;;;;;0.63;0.32;;;;;;;;;;5063311;28;20603;-72
2023/10/25 04:16:03;;;;;;;1.30;0.40;;;;;;;;;;5039866;28;20098;-72
2023/10/25 04:18:31;;;;;;;2.92;0.70;;;;;;;;;;5060724;28;20127;-74
2023/10/25 04:20:59;;;;;;;1.10;0.50;;;;;;;;;;5047024;28;20106;-72
2023/10/25 04:23:28;;;;;;;1.40;0.50;;;;;;;;;;5060847;28;20468;-72
2023/10/25 04:26:10;;;;;;;2.25;0.55;;;;;;;;;;5061342;28;20421;-73
2023/10/25 04:28:49;;;;;;;1.10;0.50;;;;;;;;;;5062565;28;20044;-73
2023/10/25 04:31:17;;;;;;;2.15;0.63;;;;;;;;;;5064186;28;20056;-72
2023/10/25 04:33:44;;;;;;;3.50;0.70;;;;;;;;;;5057687;28;20041;-72
2023/10/25 04:36:12;;;;;;;2.25;0.40;;;;;;;;;;5065716;28;20072;-73
2023/10/25 04:38:38;;;;;;;1.33;0.43;;;;;;;;;;5072222;28;20112;-73
2023/10/25 04:41:13;;;;;;;3.70;0.60;;;;;;;;;;5069171;28;20060;-75
2023/10/25 04:43:39;;;;;;;0.40;0.40;;;;;;;;;;5056168;28;20048;-73
2023/10/25 04:46:05;;;;;;;0.57;0.50;;;;;;;;;;5046231;28;20064;-73
2023/10/25 04:48:31;;;;;;;2.75;0.65;;;;;;;;;;5049637;28;20049;-72
2023/10/25 04:50:58;;;;;;;1.38;0.70;;;;;;;;;;5055866;28;20049;-72
2023/10/25 04:53:24;;;;;;;1.00;0.55;;;;;;;;;;5043648;28;20163;-72
2023/10/25 04:55:50;;;;;;;0.82;0.43;;;;;;;;;;5060396;28;20045;-73
2023/10/25 04:58:18;;;;;;;1.08;0.50;;;;;;;;;;5055831;28;20045;-73
2023/10/25 05:00:45;;;;;;;0.93;0.50;;;;;;;;;;5060592;28;20360;-72
2023/10/25 05:03:11;;;;;;;1.75;0.47;;;;;;;;;;5059126;28;20060;-74
2023/10/25 05:05:38;;;;;;;0.73;0.50;;;;;;;;;;5069828;28;20573;-75
2023/10/25 05:08:04;;;;;;;1.02;0.52;;;;;;;;;;5080284;28;20052;-74
2023/10/25 05:10:31;;;;;;;2.55;0.60;;;;;;;;;;5065538;28;20052;-74
2023/10/25 05:12:58;;;;;;;1.83;0.50;;;;;;;;;;5063634;28;20051;-74
2023/10/25 05:15:27;;;;;;;1.35;0.40;;;;;;;;;;5065883;28;20479;-74
2023/10/25 05:17:56;;;;;;;1.23;0.57;;;;;;;;;;5064272;28;20060;-72
2023/10/25 05:20:26;;;;;;;1.23;0.70;;;;;;;;;;5063349;28;20052;-72
2023/10/25 05:22:54;;;;;;;1.85;0.70;;;;;;;;;;5061745;28;20045;-75
2023/10/25 05:25:21;;;;;;;1.52;0.40;;;;;;;;;;5066850;28;20040;-73
2023/10/25 05:27:49;;;;;;;1.45;0.60;;;;;;;;;;5053703;28;20543;-73
2023/10/25 05:30:17;;;;;;;2.10;0.63;;;;;;;;;;5058965;28;20068;-73
2023/10/25 05:32:47;;;;;;;0.88;0.38;;;;;;;;;;5067377;28;20044;-74
2023/10/25 05:35:54;;;;;;;2.65;0.75;;;;;;;;;;5049449;28;20102;-77
2023/10/25 05:39:34;;;;;;;1.73;0.40;;;;;;;;;;5073968;28;20080;-70
2023/10/25 05:43:24;;;;;;;1.58;0.63;;;;;;;;;;5057081;28;20134;-71
2023/10/25 05:47:04;;;;;;;0.93;0.40;;;;;;;;;;5063339;28;20051;-74
2023/10/25 05:50:46;;;;;;;2.97;0.70;;;;;;;;;;5062222;28;20055;-74
2023/10/25 05:54:26;;;;;;;1.30;0.60;;;;;;;;;;5070585;28;20044;-71
2023/10/25 05:58:07;;;;;;;5.65;0.85;;;;;;;;;;5061955;28;20052;-72
2023/10/25 06:01:50;;;;;;;1.20;0.60;;;;;;;;;;5055059;28;20140;-74
2023/10/25 06:05:31;;;;;;;1.10;0.57;;;;;;;;;;5059994;28;20041;-73
2023/10/25 06:09:12;;;;;;;0.80;0.50;;;;;;;;;;5064697;28;20123;-68
2023/10/25 06:12:52;;;;;;;1.70;0.63;;;;;;;;;;5062580;28;20062;-71
2023/10/25 06:16:34;;;;;;;3.20;0.60;;;;;;;;;;5064719;28;20210;-71
2023/10/25 06:20:19;;;;;;;3.45;0.80;;;;;;;;;;5073133;28;20028;-71
2023/10/25 06:23:54;;;;;;;2.75;0.70;;;;;;;;;;5060800;28;20045;-73
2023/10/25 06:27:36;;;;;;;2.28;0.80;;;;;;;;;;5062454;28;20454;-68
2023/10/25 06:31:19;;;;;;;1.45;0.80;;;;;;;;;;5051618;28;20142;-74
2023/10/25 06:35:00;;;;;;;1.20;0.60;;;;;;;;;;5066679;28;20044;-72
2023/10/25 06:38:41;;;;;;;1.27;0.60;;;;;;;;;;5051134;28;20066;-72
2023/10/25 06:42:22;;;;;;;4.85;1.90;;;;;;;;;;5057464;28;20103;-72
2023/10/25 06:46:04;;;;;;;1.05;0.57;;;;;;;;;;5061562;28;20186;-71
2023/10/25 06:49:44;;;;;;;3.83;0.68;;;;;;;;;;5057420;28;20408;-70
2023/10/25 06:53:25;;;;;;;2.67;0.70;;;;;;;;;;5058035;28;20403;-71
2023/10/25 06:57:06;;;;;;;3.55;0.70;;;;;;;;;;5064188;28;20242;-70
2023/10/25 07:00:47;;;;;;;5.57;0.70;;;;;;;;;;5057384;28;20486;-70
2023/10/25 07:04:27;;;;;;;1.27;0.70;;;;;;;;;;5067003;28;20375;-69
2023/10/25 07:08:08;;;;;;;3.05;0.68;;;;;;;;;;5038697;28;20040;-72
2023/10/25 07:11:48;;;;;;;5.05;0.80;;;;;;;;;;5067084;28;20281;-71
2023/10/25 07:15:28;;;;;;;1.42;0.88;;;;;;;;;;5067962;28;20476;-73
2023/10/25 07:19:09;;;;;;;1.27;0.70;;;;;;;;;;5056810;28;20407;-74
2023/10/25 07:22:49;;;;;;;2.10;0.85;;;;;;;;;;5050850;28;20219;-71
2023/10/25 07:26:29;;;;;;;7.45;0.88;;;;;;;;;;5058359;28;20050;-71
2023/10/25 07:30:11;;;;;;;2.50;0.80;;;;;;;;;;5068555;28;20438;-70
2023/10/25 07:33:53;;;;;;;2.72;0.80;;;;;;;;;;5065124;28;20268;-70
2023/10/25 07:37:33;;;;;;;1.52;0.70;;;;;;;;;;5068657;28;20441;-71
2023/10/25 07:41:14;;;;;;;3.38;1.05;;;;;;;;;;5065986;28;20142;-71
2023/10/25 07:44:57;;;;;;;3.58;1.02;;;;;;;;;;5071509;28;20523;-71
2023/10/25 07:48:36;;;;;;;1.77;0.90;;;;;;;;;;5072275;28;20094;-70
2023/10/25 07:52:16;;;;;;;5.78;0.50;;;;;;;;;;5063437;28;20188;-71
2023/10/25 07:55:56;;;;;;;1.45;0.70;;;;;;;;;;5060069;28;20155;-71
2023/10/25 07:59:37;;;;;;;2.38;0.65;;;;;;;;;;5063707;28;20044;-71
2023/10/25 08:03:17;;;;;;;1.23;0.40;;;;;;;;;;5065111;28;20036;-70
2023/10/25 08:06:59;;;;;;;1.55;0.40;;;;;;;;;;5060838;28;20177;-70
2023/10/25 08:10:39;;;;;;;1.02;0.50;;;;;;;;;;5061935;28;20045;-71
2023/10/25 08:14:20;;;;;;;3.47;0.70;;;;;;;;;;5066370;28;20491;-71
2023/10/25 08:18:00;;;;;;;1.80;0.50;;;;;;;;;;5067729;28;20407;-72
2023/10/25 08:21:41;;;;;;;0.60;0.35;;;;;;;;;;5068409;28;20044;-71
2023/10/25 08:25:23;;;;;;;2.80;0.70;;;;;;;;;;5063661;28;20052;-70
2023/10/25 08:29:03;;;;;;;1.27;0.60;;;;;;;;;;5061046;28;20139;-71
2023/10/25 08:32:43;;;;;;;0.55;0.40;;;;;;;;;;5062214;28;20041;-73
2023/10/25 08:36:24;;;;;;;2.45;1.08;;;;;;;;;;5062939;28;20473;-70
2023/10/25 08:40:05;;;;;;;2.75;0.98;;;;;;;;;;5068388;28;20041;-71
2023/10/25 08:43:45;;;;;;;1.88;0.40;;;;;;;;;;5063086;28;20049;-70
2023/10/25 08:47:26;;;;;;;2.40;0.98;;;;;;;;;;5052475;28;20127;-71
2023/10/25 08:51:06;;;;;;;1.10;0.68;;;;;;;;;;5050542;28;20107;-70
2023/10/25 08:54:47;;;;;;;1.52;0.47;;;;;;;;;;5070968;28;20365;-73
2023/10/25 08:58:27;;;;;;;1.55;0.43;;;;;;;;;;5074416;28;20063;-70
2023/10/25 09:02:08;;;;;;;1.63;0.55;;;;;;;;;;5068586;28;20050;-70
2023/10/25 09:05:48;;;;;;;1.95;0.55;;;;;;;;;;5065206;28;20079;-71
2023/10/25 09:09:28;;;;;;;1.45;0.47;;;;;;;;;;5063937;28;20125;-70
2023/10/25 09:13:08;;;;;;;2.08;0.50;;;;;;;;;;5065310;28;20048;-71
2023/10/25 09:16:50;;;;;;;2.58;0.60;;;;;;;;;;5058568;28;20110;-71
2023/10/25 09:20:32;;;;;;;2.20;0.63;;;;;;;;;;5071548;28;20074;-72
2023/10/25 09:24:15;;;;;;;1.08;0.50;;;;;;;;;;5069218;28;20277;-71
2023/10/25 09:27:55;;;;;;;1.77;0.63;;;;;;;;;;5082558;28;20044;-72
2023/10/25 09:31:39;;;;;;;2.05;1.05;;;;;;;;;;5063535;28;20039;-72
2023/10/25 09:35:19;;;;;;;1.73;1.00;;;;;;;;;;5066109;28;20128;-70
2023/10/25 09:38:59;;;;;;;1.08;0.68;;;;;;;;;;5068340;28;20040;-70
2023/10/25 09:42:44;;;;;;;3.20;0.68;;;;;;;;;;5065665;28;20066;-70
2023/10/25 09:46:24;;;;;;;1.10;0.70;;;;;;;;;;5060863;28;20055;-72
2023/10/25 09:50:05;;;;;;;8.60;1.00;;;;;;;;;;5063004;28;20113;-71
2023/10/25 09:53:51;;;;;;;7.47;1.20;;;;;;;;;;5066574;28;20039;-71
2023/10/25 09:57:33;;;;;;;4.50;0.70;;;;;;;;;;5062342;28;20040;-70
2023/10/25 10:01:15;;;;;;;4.93;0.90;;;;;;;;;;5070036;28;20273;-70
2023/10/25 10:04:41;;;;;;;5.30;0.57;;;;;;;;;;5077744;28;20101;-69
2023/10/25 10:08:27;;;;;;;0.55;0.30;;;;;;;;;;5070719;28;20453;-69
2023/10/25 10:12:07;;;;;;;1.85;0.50;;;;;;;;;;5066170;28;20051;-70
2023/10/25 10:15:46;;;;;;;3.53;0.50;;;;;;;;;;5065381;28;20056;-71
2023/10/25 10:19:26;;;;;;;2.28;0.60;;;;;;;;;;5067804;28;20043;-73
2023/10/25 10:23:24;;;;;;;4.35;0.47;;;;;;;;;;5054802;28;20396;-71
2023/10/25 10:27:07;;;;;;;2.22;0.63;;;;;;;;;;5062737;28;20055;-72
2023/10/25 10:30:29;;;;;;;3.70;0.50;;;;;;;;;;5061361;28;20037;-71
2023/10/25 10:34:10;;;;;;;6.90;0.60;;;;;;;;;;5062846;28;20055;-70
2023/10/25 10:37:34;;;;;;;8.27;0.80;;;;;;;;;;5071707;28;20869;-72
2023/10/25 10:40:35;;;;;;;4.35;0.70;;;;;;;;;;5057684;28;20065;-71
2023/10/25 10:43:02;;;;;;;3.38;0.70;;;;;;;;;;5062245;28;20045;-71
2023/10/25 10:46:07;;;;;;;1.23;0.47;;;;;;;;;;5063498;28;20136;-71
2023/10/25 10:49:48;;;;;;;1.70;0.60;;;;;;;;;;5066620;28;20048;-70
2023/10/25 10:53:29;;;;;;;5.22;0.60;;;;;;;;;;5062848;28;20075;-70
2023/10/25 10:57:14;;;;;;;1.90;0.55;;;;;;;;;;5061605;28;20348;-70
2023/10/25 11:00:51;;;;;;;5.53;0.60;;;;;;;;;;5054001;28;20063;-71
2023/10/25 11:04:32;;;;;;;1.55;0.47;;;;;;;;;;5065709;28;20540;-70
2023/10/25 11:08:13;;;;;;;3.85;0.50;;;;;;;;;;5059319;28;20155;-69
2023/10/25 11:11:53;;;;;;;3.03;0.63;;;;;;;;;;5066590;28;20051;-70
2023/10/25 11:15:33;;;;;;;5.45;0.80;;;;;;;;;;5060961;28;20044;-69
2023/10/25 11:19:14;;;;;;;2.85;0.50;;;;;;;;;;5059887;28;20537;-71
2023/10/25 11:22:54;;;;;;;5.25;1.20;;;;;;;;;;5062787;28;20128;-70
2023/10/25 11:26:37;;;;;;;2.33;0.60;;;;;;;;;;5056009;28;20040;-71
2023/10/25 11:30:17;;;;;;;0.85;0.40;;;;;;;;;;5062246;28;20471;-70
2023/10/25 11:34:03;;;;;;;2.17;0.95;;;;;;;;;;5062167;28;20472;-70
2023/10/25 11:37:25;;;;;;;;;;;;;;;;;;5068240;28;20067;-70
2023/10/25 11:41:14;;;;;;;3.42;0.90;;;;;;;;;;5063749;28;20002;-74
2023/10/25 11:44:54;;;;;;;2.33;0.80;;;;;;;;;;5051877;28;20056;-69
2023/10/25 11:48:35;;;;;;;3.90;0.80;;;;;;;;;;5067549;28;20058;-70
2023/10/25 11:52:16;;;;;;;2.28;0.88;;;;;;;;;;5066804;28;20056;-72
2023/10/25 11:55:59;;;;;;;5.57;0.85;;;;;;;;;;5065491;28;20054;-73
2023/10/25 11:59:39;;;;;;;6.05;0.70;;;;;;;;;;5066318;28;20483;-70
2023/10/25 12:03:20;;;;;;;4.20;0.80;;;;;;;;;;5065832;28;20104;-72
2023/10/25 12:07:00;;;;;;;2.85;0.80;;;;;;;;;;5061772;28;20083;-71
2023/10/25 12:10:42;;;;;;;5.65;0.90;;;;;;;;;;5062814;28;20070;-73
2023/10/25 12:14:22;;;;;;;3.13;0.90;;;;;;;;;;5058941;28;20052;-71
2023/10/25 12:18:03;;;;;;;4.78;1.00;;;;;;;;;;5072478;28;20091;-70
2023/10/25 12:21:44;;;;;;;2.40;0.70;;;;;;;;;;5080100;28;20398;-71
2023/10/25 12:25:26;;;;;;;8.18;0.73;;;;;;;;;;5073725;28;20546;-72
2023/10/25 12:29:06;;;;;;;3.63;0.70;;;;;;;;;;5053797;28;20048;-70
2023/10/25 12:32:47;;;;;;;3.15;0.98;;;;;;;;;;5059514;28;20654;-71
2023/10/25 12:36:27;;;;;;;2.20;1.00;;;;;;;;;;5056014;28;20044;-70
2023/10/25 12:40:09;;;;;;;1.73;0.75;;;;;;;;;;5076580;28;20059;-71
2023/10/25 12:43:49;;;;;;;5.38;0.75;;;;;;;;;;5065001;28;20459;-73
2023/10/25 12:47:29;;;;;;;2.05;0.65;;;;;;;;;;5063403;28;20048;-71
2023/10/25 12:51:11;;;;;;;1.35;0.70;;;;;;;;;;5066565;28;20146;-71
2023/10/25 12:54:51;;;;;;;1.23;0.52;;;;;;;;;;5066182;28;20044;-71
2023/10/25 12:58:31;;;;;;;7.93;1.08;;;;;;;;;;5076672;28;20192;-70
2023/10/25 13:02:12;;;;;;;1.27;0.50;;;;;;;;;;5065535;28;20052;-72
2023/10/25 13:05:53;;;;;;;8.60;1.20;;;;;;;;;;5066407;28;20099;-71
2023/10/25 13:09:34;;;;;;;4.05;0.93;;;;;;;;;;5071282;28;20106;-71
2023/10/25 13:13:14;;;;;;;6.45;0.80;;;;;;;;;;5076475;28;20656;-70
2023/10/25 13:16:54;;;;;;;3.90;1.00;;;;;;;;;;5055599;28;20401;-69
2023/10/25 13:20:36;;;;;;;2.67;1.20;;;;;;;;;;5068133;28;20052;-71
2023/10/25 13:24:16;;;;;;;2.13;1.13;;;;;;;;;;5069171;28;20482;-71
2023/10/25 13:27:57;;;;;;;4.80;1.00;;;;;;;;;;5065675;28;20457;-71
2023/10/25 13:31:37;;;;;;;2.13;0.73;;;;;;;;;;5066468;28;20045;-72
2023/10/25 13:35:19;;;;;;;6.75;1.42;;;;;;;;;;5066032;28;20063;-74
2023/10/25 13:38:59;;;;;;;4.32;1.05;;;;;;;;;;5069689;28;20053;-73
2023/10/25 13:42:41;;;;;;;8.27;1.23;;;;;;;;;;5061586;28;20389;-71
2023/10/25 13:46:21;;;;;;;4.68;1.10;;;;;;;;;;5066223;28;20057;-71
2023/10/25 13:50:06;;;;;;;4.13;1.20;;;;;;;;;;5069619;28;20544;-72
2023/10/25 13:53:48;;;;;;;3.47;0.88;;;;;;;;;;5065468;28;20048;-71
2023/10/25 13:57:29;;;;;;;3.38;0.82;;;;;;;;;;5060552;28;20041;-72
2023/10/25 14:01:09;;;;;;;4.30;1.20;;;;;;;;;;5066046;28;20139;-73
2023/10/25 14:04:49;;;;;;;9.98;1.35;;;;;;;;;;5067214;28;20047;-73
2023/10/25 14:08:30;;;;;;;4.93;1.00;;;;;;;;;;5064462;28;20092;-76
2023/10/25 14:12:13;;;;;;;2.88;1.00;;;;;;;;;;5063246;28;20043;-73
2023/10/25 14:15:54;;;;;;;4.00;1.05;;;;;;;;;;5061693;28;20044;-71
2023/10/25 14:19:35;;;;;;;6.65;0.63;;;;;;;;;;5068862;28;20047;-72
2023/10/25 14:23:18;;;;;;;2.25;1.00;;;;;;;;;;5068561;28;20511;-72
2023/10/25 14:26:57;;;;;;;4.03;0.90;;;;;;;;;;5067961;28;20032;-71
2023/10/25 14:30:47;;;;;;;12.38;0.90;;;;;;;;;;5062421;28;20122;-72
2023/10/25 14:34:28;;;;;;;3.53;0.98;;;;;;;;;;5068311;28;20058;-71
2023/10/25 14:38:10;;;;;;;6.35;0.85;;;;;;;;;;5061083;28;20563;-72
2023/10/25 14:41:52;;;;;;;8.63;1.10;;;;;;;;;;5061621;28;20151;-75
2023/10/25 14:45:33;;;;;;;3.92;0.90;;;;;;;;;;5062669;28;20059;-71
2023/10/25 14:49:13;;;;;;;6.60;1.67;;;;;;;;;;5058191;28;20139;-76
2023/10/25 14:52:53;;;;;;;7.60;1.10;;;;;;;;;;5058951;28;20120;-73
2023/10/25 14:56:35;;;;;;;3.10;1.20;;;;;;;;;;5075314;28;20044;-72
2023/10/25 15:00:16;;;;;;;6.25;1.55;;;;;;;;;;5075163;28;20238;-72
2023/10/25 15:03:56;;;;;;;3.75;1.20;;;;;;;;;;5053801;28;20056;-73
2023/10/25 15:07:38;;;;;;;8.70;1.00;;;;;;;;;;5066168;28;20053;-71
2023/10/25 15:11:21;;;;;;;6.60;0.85;;;;;;;;;;5063751;28;20035;-71
2023/10/25 15:15:02;;;;;;;14.82;1.20;;;;;;;;;;5054514;28;20101;-72
2023/10/25 15:18:44;;;;;;;4.18;1.30;;;;;;;;;;5053933;28;20075;-74
2023/10/25 15:22:23;;;;;;;5.18;1.05;;;;;;;;;;5056514;28;20174;-71
2023/10/25 15:26:05;;;;;;;9.60;2.88;;;;;;;;;;5054154;28;20482;-73
2023/10/25 15:29:45;;;;;;;6.97;1.30;;;;;;;;;;5056766;28;20106;-75
2023/10/25 15:33:25;;;;;;;3.53;1.10;;;;;;;;;;5062531;28;20082;-71
2023/10/25 15:37:08;;;;;;;8.30;1.40;;;;;;;;;;5050457;28;20185;-72
2023/10/25 15:40:47;;;;;;;15.13;6.30;;;;;;;;;;5061845;28;20051;-71
2023/10/25 15:44:29;;;;;;;11.90;5.22;;;;;;;;;;5057591;28;20036;-69
2023/10/25 15:48:26;;;;;;;4.20;1.60;;;;;;;;;;5063409;28;20054;-71
2023/10/25 15:52:07;;;;;;;11.50;1.90;;;;;;;;;;5067671;28;20492;-74
2023/10/25 15:55:47;;;;;;;6.97;1.45;;;;;;;;;;5057682;28;20315;-72
2023/10/25 15:59:29;;;;;;;7.00;1.50;;;;;;;;;;5064871;28;20044;-75
2023/10/25 16:03:10;;;;;;;13.25;1.85;;;;;;;;;;5057891;28;20067;-74
2023/10/25 16:06:50;;;;;;;6.60;1.33;;;;;;;;;;5069300;28;20040;-73
2023/10/25 16:10:32;;;;;;;5.82;1.30;;;;;;;;;;5062901;28;20036;-76
2023/10/25 16:14:13;;;;;;;3.92;1.25;;;;;;;;;;5066309;28;20072;-74
2023/10/25 16:17:55;;;;;;;2.92;0.90;;;;;;;;;;5067276;28;20040;-73
2023/10/25 16:21:36;;;;;;;10.27;1.48;;;;;;;;;;5065680;28;20071;-75
2023/10/25 16:25:16;;;;;;;5.82;1.58;;;;;;;;;;5060447;28;20505;-74
2023/10/25 16:28:56;;;;;;;7.63;1.88;;;;;;;;;;5055417;28;20048;-75
2023/10/25 16:32:38;;;;;;;11.43;1.55;;;;;;;;;;5066262;28;20226;-73
2023/10/25 16:36:21;;;;;;;4.47;1.10;;;;;;;;;;5064095;28;20044;-74
2023/10/25 16:40:02;;;;;;;6.68;1.40;;;;;;;;;;5063764;28;20456;-73
2023/10/25 16:43:41;;;;;;;4.43;1.40;;;;;;;;;;5065166;28;20048;-74
2023/10/25 16:47:22;;;;;;;6.80;1.70;;;;;;;;;;5061671;28;20133;-74
2023/10/25 16:51:02;;;;;;;6.70;1.52;;;;;;;;;;5067807;28;20058;-72
2023/10/25 16:54:43;;;;;;;5.05;1.17;;;;;;;;;;5069136;28;20404;-71
2023/10/25 16:58:24;;;;;;;7.63;1.30;;;;;;;;;;5067305;28;20044;-71
2023/10/25 17:02:07;;;;;;;4.43;1.70;;;;;;;;;;5054793;28;20052;-73
2023/10/25 17:05:46;;;;;;;10.02;1.45;;;;;;;;;;5070637;28;20040;-72
2023/10/25 17:09:27;;;;;;;7.95;2.03;;;;;;;;;;5067511;28;20070;-72
2023/10/25 17:13:08;;;;;;;4.47;1.15;;;;;;;;;;5071231;28;20548;-72
2023/10/25 17:16:48;;;;;;;11.10;1.67;;;;;;;;;;5068222;28;20052;-74
2023/10/25 17:20:29;;;;;;;10.82;1.58;;;;;;;;;;5058631;28;20056;-73
2023/10/25 17:24:14;;;;;;;3.03;1.10;;;;;;;;;;5062707;28;20385;-73
2023/10/25 17:27:52;;;;;;;5.07;1.30;;;;;;;;;;5071218;28;20059;-72
2023/10/25 17:31:34;;;;;;;8.65;1.35;;;;;;;;;;5053141;28;20106;-72
2023/10/25 17:35:15;;;;;;;4.55;1.27;;;;;;;;;;5059877;28;20123;-72
2023/10/25 17:38:56;;;;;;;5.55;1.35;;;;;;;;;;5054073;28;20045;-72
2023/10/25 17:42:36;;;;;;;6.82;1.50;;;;;;;;;;5056039;28;20045;-74
2023/10/25 17:46:18;;;;;;;6.65;1.30;;;;;;;;;;5063937;28;20444;-72
2023/10/25 17:49:59;;;;;;;6.47;1.42;;;;;;;;;;5075315;28;20040;-72
2023/10/25 17:53:40;;;;;;;5.93;1.58;;;;;;;;;;5064521;28;20044;-71
2023/10/25 17:57:22;;;;;;;6.25;1.45;;;;;;;;;;5060328;28;20067;-73
2023/10/25 18:01:04;;;;;;;6.25;1.42;;;;;;;;;;5064974;28;20067;-73
2023/10/25 18:04:44;;;;;;;9.30;1.60;;;;;;;;;;5074065;28;20052;-74
2023/10/25 18:08:30;;;;;;;6.32;1.83;;;;;;;;;;5067167;28;20044;-73
2023/10/25 18:12:09;;;;;;;4.50;1.40;;;;;;;;;;5062051;28;20056;-75
2023/10/25 18:15:50;;;;;;;6.82;1.35;;;;;;;;;;5064663;28;20055;-74
2023/10/25 18:19:30;;;;;;;4.72;1.25;;;;;;;;;;5072604;28;20131;-75
2023/10/25 18:23:12;;;;;;;5.55;1.45;;;;;;;;;;5067487;28;20512;-74
2023/10/25 18:26:55;;;;;;;4.53;1.30;;;;;;;;;;5057943;28;20152;-70
2023/10/25 18:30:38;;;;;;;4.55;1.27;;;;;;;;;;5064893;28;20071;-75
2023/10/25 18:34:20;;;;;;;6.70;1.60;;;;;;;;;;5061243;28;20036;-72
2023/10/25 18:37:59;;;;;;;3.65;1.48;;;;;;;;;;5063154;28;20051;-71
2023/10/25 18:41:39;;;;;;;9.98;1.90;;;;;;;;;;5044896;28;20461;-71
2023/10/25 18:45:21;;;;;;;6.22;1.48;;;;;;;;;;5065021;28;20056;-73
2023/10/25 18:49:00;;;;;;;6.55;1.58;;;;;;;;;;5068340;28;20076;-72
2023/10/25 18:52:41;;;;;;;6.38;1.67;;;;;;;;;;5059768;28;20485;-71
2023/10/25 18:56:22;;;;;;;6.05;1.70;;;;;;;;;;5067090;28;20063;-72
2023/10/25 19:00:02;;;;;;;6.70;1.60;;;;;;;;;;5061352;28;20048;-71
2023/10/25 19:03:42;;;;;;;3.60;1.13;;;;;;;;;;5052745;28;20049;-72
2023/10/25 19:07:23;;;;;;;6.22;2.08;;;;;;;;;;5067023;28;20046;-73
2023/10/25 19:11:03;;;;;;;4.85;1.40;;;;;;;;;;5060880;28;20187;-71
2023/10/25 19:14:44;;;;;;;5.22;1.48;;;;;;;;;;5066842;28;20099;-72